^^
Saratoga-Weather Station Historical Data
Daily Summary for December 23, 2020 Units:  Both    English   Metric
Daily Weekly Monthly Yearly Custom
  High: Low: Average:
Temperature: 57.2 °F /  14 °C 48.6 °F /  9.2 °C 54 °F /  12.2 °C
Dew Point: 55 °F /  12.8 °C 43.7 °F /  6.5 °C 52 °F /  11.1 °C
Humidity: 97% 82% 93%
Wind Speed: 13mph /  20.9km/h - 2.3mph /  3.7km/h
Wind Gust: 23mph /  37km/h - -
Wind- - SW
Pressure: 30 in /  1015.6 hPa 29.8 in /  1009.1 hPa -
Precipitation: 0.98 in /  24.9 mm    
Historical Graphs
 
 
Tabular Data for December 23, 2020
Time Temperature Dew Point Pressure Wind Wind Speed Wind Gust Humidity Rainfall Rate (Hourly) solar
00:01 57.2 °F /  14 °C 54.9 °F /  12.7 °C 30in /  1015.6hPa SW 0.9mph /  1.4km/h 9mph /  14.5km/h 92% 0in /  0.0mm 0 W/m2
00:06 57.2 °F /  14 °C 54.9 °F /  12.7 °C 30in /  1015.6hPa NW 2mph /  3.2km/h 3mph /  4.8km/h 92% 0.01in /  0.2mm 0 W/m2
00:11 57 °F /  13.9 °C 54.7 °F /  12.6 °C 30in /  1015.6hPa NW 4mph /  6.4km/h 9mph /  14.5km/h 92% 0.01in /  0.2mm 0 W/m2
00:16 57 °F /  13.9 °C 54.7 °F /  12.6 °C 30in /  1015.6hPa WNW 2mph /  3.2km/h 4mph /  6.4km/h 92% 0.02in /  0.5mm 0 W/m2
00:21 57 °F /  13.9 °C 55 °F /  12.8 °C 30in /  1015.6hPa NNW 2mph /  3.2km/h 3mph /  4.8km/h 93% 0.02in /  0.5mm 0 W/m2
00:26 56.8 °F /  13.8 °C 54.9 °F /  12.7 °C 30in /  1015.6hPa Calm   7mph /  11.3km/h 93% 0.03in /  0.8mm 0 W/m2
00:31 56.8 °F /  13.8 °C 54.9 °F /  12.7 °C 30in /  1015.6hPa North 0.9mph /  1.4km/h 4mph /  6.4km/h 93% 0.03in /  0.8mm 0 W/m2
00:36 56.8 °F /  13.8 °C 54.9 °F /  12.7 °C 30in /  1015.2hPa Calm   4mph /  6.4km/h 93% 0.04in /  1.0mm 0 W/m2
00:41 56.8 °F /  13.8 °C 54.9 °F /  12.7 °C 30in /  1015.2hPa NW 2mph /  3.2km/h 5mph /  8km/h 93% 0.04in /  1.0mm 0 W/m2
00:46 56.7 °F /  13.7 °C 55 °F /  12.8 °C 30in /  1015.2hPa NW 0.9mph /  1.4km/h 9mph /  14.5km/h 94% 0.05in /  1.3mm 0 W/m2
00:51 56.7 °F /  13.7 °C 55 °F /  12.8 °C 30in /  1015.2hPa Calm   3mph /  4.8km/h 94% 0.05in /  1.3mm 0 W/m2
01:09 56.7 °F /  13.7 °C 55 °F /  12.8 °C 30in /  1015.2hPa WNW 2.9mph /  4.7km/h 4mph /  6.4km/h 94% 0.04in /  1.0mm 0 W/m2
01:14 56.5 °F /  13.6 °C 54.9 °F /  12.7 °C 30in /  1015.2hPa NW 0.9mph /  1.4km/h 6mph /  9.7km/h 94% 0.03in /  0.8mm 0 W/m2
01:20 56.5 °F /  13.6 °C 54.9 °F /  12.7 °C 30in /  1015.2hPa NW 2.9mph /  4.7km/h 6mph /  9.7km/h 94% 0.04in /  1.0mm 0 W/m2
01:25 56.5 °F /  13.6 °C 54.9 °F /  12.7 °C 30in /  1015.2hPa Calm   9mph /  14.5km/h 94% 0.02in /  0.5mm 0 W/m2
01:30 56.5 °F /  13.6 °C 54.9 °F /  12.7 °C 30in /  1015.2hPa WSW 4mph /  6.4km/h 6mph /  9.7km/h 94% 0.02in /  0.5mm 0 W/m2
01:35 56.7 °F /  13.7 °C 55 °F /  12.8 °C 30in /  1015.2hPa WNW 0.9mph /  1.4km/h 4mph /  6.4km/h 94% 0.02in /  0.5mm 0 W/m2
01:40 56.5 °F /  13.6 °C 54.9 °F /  12.7 °C 30in /  1015.2hPa Calm   3mph /  4.8km/h 94% 0.02in /  0.5mm 0 W/m2
01:45 56.5 °F /  13.6 °C 54.9 °F /  12.7 °C 30in /  1015.2hPa Calm   2mph /  3.2km/h 94% 0.02in /  0.5mm 0 W/m2
01:50 56.5 °F /  13.6 °C 54.9 °F /  12.7 °C 30in /  1015.2hPa NNE 0.9mph /  1.4km/h 3mph /  4.8km/h 94% 0.02in /  0.5mm 0 W/m2
01:55 56.5 °F /  13.6 °C 54.9 °F /  12.7 °C 30in /  1015.2hPa NE 2.9mph /  4.7km/h 3mph /  4.8km/h 94% 0.02in /  0.5mm 0 W/m2
02:00 56.3 °F /  13.5 °C 54.7 °F /  12.6 °C 30in /  1015.2hPa NW 2.9mph /  4.7km/h 4mph /  6.4km/h 94% 0.03in /  0.8mm 0 W/m2
02:05 56.3 °F /  13.5 °C 54.7 °F /  12.6 °C 30in /  1015.2hPa ESE 0.9mph /  1.4km/h 3mph /  4.8km/h 94% 0.03in /  0.8mm 0 W/m2
02:10 56.1 °F /  13.4 °C 54.5 °F /  12.5 °C 30in /  1015.2hPa WSW 0.9mph /  1.4km/h 4mph /  6.4km/h 94% 0.03in /  0.8mm 0 W/m2
02:15 56.1 °F /  13.4 °C 54.5 °F /  12.5 °C 30in /  1015.2hPa NW 2mph /  3.2km/h 2mph /  3.2km/h 94% 0.02in /  0.5mm 0 W/m2
02:20 56.1 °F /  13.4 °C 54.5 °F /  12.5 °C 30in /  1015.2hPa WNW 2mph /  3.2km/h 3mph /  4.8km/h 94% 0.03in /  0.8mm 0 W/m2
02:25 56.1 °F /  13.4 °C 54.7 °F /  12.6 °C 30in /  1015.2hPa Calm   4mph /  6.4km/h 95% 0.04in /  1.0mm 0 W/m2
02:30 55.9 °F /  13.3 °C 54.5 °F /  12.5 °C 30in /  1015.2hPa South 0.9mph /  1.4km/h 4mph /  6.4km/h 95% 0.05in /  1.3mm 0 W/m2
02:35 55.9 °F /  13.3 °C 54.5 °F /  12.5 °C 30in /  1015.2hPa WNW 0.9mph /  1.4km/h 4mph /  6.4km/h 95% 0.06in /  1.5mm 0 W/m2
02:40 55.9 °F /  13.3 °C 54.5 °F /  12.5 °C 30in /  1015.2hPa NNW 2mph /  3.2km/h 6mph /  9.7km/h 95% 0.1in /  2.5mm 0 W/m2
02:45 55.8 °F /  13.2 °C 54.3 °F /  12.4 °C 30in /  1015.2hPa NW 2.9mph /  4.7km/h 3mph /  4.8km/h 95% 0.13in /  3.3mm 0 W/m2
02:50 55.8 °F /  13.2 °C 54.3 °F /  12.4 °C 30in /  1015.2hPa WNW 4mph /  6.4km/h 4mph /  6.4km/h 95% 0.13in /  3.3mm 0 W/m2
02:55 55.8 °F /  13.2 °C 54.3 °F /  12.4 °C 30in /  1015.2hPa Calm   3mph /  4.8km/h 95% 0.15in /  3.8mm 0 W/m2
03:00 55.8 °F /  13.2 °C 54.3 °F /  12.4 °C 30in /  1015.2hPa NNW 4mph /  6.4km/h 5mph /  8km/h 95% 0.16in /  4.1mm 0 W/m2
03:05 55.8 °F /  13.2 °C 54.3 °F /  12.4 °C 30in /  1014.9hPa Calm   3mph /  4.8km/h 95% 0.17in /  4.3mm 0 W/m2
03:10 55.8 °F /  13.2 °C 54.3 °F /  12.4 °C 30in /  1014.9hPa NNW 2mph /  3.2km/h 5mph /  8km/h 95% 0.18in /  4.6mm 0 W/m2
03:15 55.8 °F /  13.2 °C 54.3 °F /  12.4 °C 30in /  1014.9hPa NW 0.9mph /  1.4km/h 2mph /  3.2km/h 95% 0.19in /  4.8mm 0 W/m2
03:20 55.8 °F /  13.2 °C 54.3 °F /  12.4 °C 30in /  1014.9hPa Calm   1mph /  1.6km/h 95% 0.19in /  4.8mm 0 W/m2
03:25 55.8 °F /  13.2 °C 54.3 °F /  12.4 °C 30in /  1014.6hPa WNW 0.9mph /  1.4km/h 4mph /  6.4km/h 95% 0.2in /  5.1mm 0 W/m2
03:30 55.6 °F /  13.1 °C 54.1 °F /  12.3 °C 30in /  1014.6hPa WNW 4mph /  6.4km/h 5mph /  8km/h 95% 0.2in /  5.1mm 0 W/m2
03:35 55.6 °F /  13.1 °C 54.1 °F /  12.3 °C 30in /  1014.6hPa West 0.9mph /  1.4km/h 5mph /  8km/h 95% 0.19in /  4.8mm 0 W/m2
03:40 55.6 °F /  13.1 °C 54.1 °F /  12.3 °C 30in /  1014.9hPa West 0.9mph /  1.4km/h 3mph /  4.8km/h 95% 0.14in /  3.6mm 0 W/m2
03:45 55.6 °F /  13.1 °C 54.1 °F /  12.3 °C 30in /  1014.6hPa WNW 6mph /  9.7km/h 6mph /  9.7km/h 95% 0.14in /  3.6mm 0 W/m2
03:50 55.6 °F /  13.1 °C 54.1 °F /  12.3 °C 30in /  1014.6hPa WNW 4.9mph /  7.9km/h 5mph /  8km/h 95% 0.15in /  3.8mm 0 W/m2
03:55 55.6 °F /  13.1 °C 54.1 °F /  12.3 °C 30in /  1014.6hPa WNW 2mph /  3.2km/h 3mph /  4.8km/h 95% 0.14in /  3.6mm 0 W/m2
04:00 55.6 °F /  13.1 °C 54.1 °F /  12.3 °C 30in /  1014.6hPa Calm   1mph /  1.6km/h 95% 0.13in /  3.3mm 0 W/m2
04:05 55.6 °F /  13.1 °C 54.1 °F /  12.3 °C 30in /  1014.6hPa ENE 2.9mph /  4.7km/h 5mph /  8km/h 95% 0.13in /  3.3mm 0 W/m2
04:10 55.4 °F /  13 °C 54.3 °F /  12.4 °C 30in /  1014.6hPa NW 4mph /  6.4km/h 9mph /  14.5km/h 96% 0.13in /  3.3mm 0 W/m2
04:15 55.6 °F /  13.1 °C 54.1 °F /  12.3 °C 30in /  1014.2hPa West 4mph /  6.4km/h 5mph /  8km/h 95% 0.13in /  3.3mm 0 W/m2
04:20 55.6 °F /  13.1 °C 54.1 °F /  12.3 °C 30in /  1014.2hPa WNW 11mph /  17.7km/h 13mph /  20.9km/h 95% 0.13in /  3.3mm 0 W/m2
04:25 55.6 °F /  13.1 °C 54.1 °F /  12.3 °C 30in /  1014.2hPa NW 2.9mph /  4.7km/h 3mph /  4.8km/h 95% 0.11in /  2.8mm 0 W/m2
04:30 55.6 °F /  13.1 °C 54.1 °F /  12.3 °C 30in /  1014.2hPa West 2.9mph /  4.7km/h 8mph /  12.9km/h 95% 0.12in /  3.0mm 0 W/m2
04:35 55.6 °F /  13.1 °C 54.1 °F /  12.3 °C 30in /  1014.2hPa WNW 4mph /  6.4km/h 4mph /  6.4km/h 95% 0.13in /  3.3mm 0 W/m2
04:40 55.6 °F /  13.1 °C 54.1 °F /  12.3 °C 30in /  1014.2hPa West 4mph /  6.4km/h 4mph /  6.4km/h 95% 0.14in /  3.6mm 0 W/m2
04:45 55.4 °F /  13 °C 54 °F /  12.2 °C 30in /  1014.2hPa WNW 4mph /  6.4km/h 5mph /  8km/h 95% 0.11in /  2.8mm 0 W/m2
04:50 55.2 °F /  12.9 °C 53.8 °F /  12.1 °C 30in /  1014.2hPa Calm   2mph /  3.2km/h 95% 0.09in /  2.3mm 0 W/m2
04:55 55.2 °F /  12.9 °C 53.8 °F /  12.1 °C 30in /  1014.2hPa SW 2mph /  3.2km/h 5mph /  8km/h 95% 0.09in /  2.3mm 0 W/m2
05:00 55 °F /  12.8 °C 53.6 °F /  12 °C 30in /  1014.2hPa SSW 0.9mph /  1.4km/h 3mph /  4.8km/h 95% 0.09in /  2.3mm 0 W/m2
05:05 55 °F /  12.8 °C 53.6 °F /  12 °C 30in /  1014.2hPa West 2.9mph /  4.7km/h 4mph /  6.4km/h 95% 0.08in /  2.0mm 0 W/m2
05:10 55 °F /  12.8 °C 53.6 °F /  12 °C 30in /  1014.2hPa NW 0.9mph /  1.4km/h 3mph /  4.8km/h 95% 0.07in /  1.8mm 0 W/m2
05:15 54.9 °F /  12.7 °C 53.4 °F /  11.9 °C 30in /  1014.2hPa Calm   1mph /  1.6km/h 95% 0.06in /  1.5mm 0 W/m2
05:20 54.7 °F /  12.6 °C 53.2 °F /  11.8 °C 30in /  1014.2hPa Calm   3mph /  4.8km/h 95% 0.06in /  1.5mm 0 W/m2
05:25 54.7 °F /  12.6 °C 53.2 °F /  11.8 °C 29.9in /  1013.9hPa Calm   4mph /  6.4km/h 95% 0.06in /  1.5mm 0 W/m2
05:30 54.7 °F /  12.6 °C 53.2 °F /  11.8 °C 30in /  1014.2hPa WSW 0.9mph /  1.4km/h 2mph /  3.2km/h 95% 0.06in /  1.5mm 0 W/m2
05:35 54.5 °F /  12.5 °C 53.1 °F /  11.7 °C 29.9in /  1013.9hPa West 0.9mph /  1.4km/h 4mph /  6.4km/h 95% 0.04in /  1.0mm 0 W/m2
05:54 54.1 °F /  12.3 °C 52.7 °F /  11.5 °C 29.9in /  1013.5hPa Calm   4mph /  6.4km/h 95% 0.03in /  0.8mm 0 W/m2
05:59 54.1 °F /  12.3 °C 53.1 °F /  11.7 °C 29.9in /  1013.5hPa ESE 0.9mph /  1.4km/h 2mph /  3.2km/h 96% 0.03in /  0.8mm 0 W/m2
06:04 54 °F /  12.2 °C 52.9 °F /  11.6 °C 29.9in /  1013.5hPa East 0.9mph /  1.4km/h 3mph /  4.8km/h 96% 0.03in /  0.8mm 0 W/m2
06:09 54 °F /  12.2 °C 52.9 °F /  11.6 °C 29.9in /  1013.5hPa Calm   1mph /  1.6km/h 96% 0.02in /  0.5mm 0 W/m2
06:14 53.8 °F /  12.1 °C 52.7 °F /  11.5 °C 29.9in /  1013.5hPa Calm     96% 0.03in /  0.8mm 0 W/m2
06:19 53.8 °F /  12.1 °C 52.7 °F /  11.5 °C 29.9in /  1013.5hPa Calm     96% 0.03in /  0.8mm 0 W/m2
06:24 53.8 °F /  12.1 °C 52.7 °F /  11.5 °C 29.9in /  1013.5hPa Calm     96% 0.03in /  0.8mm 0 W/m2
06:29 53.6 °F /  12 °C 52.5 °F /  11.4 °C 29.9in /  1013.5hPa Calm   1mph /  1.6km/h 96% 0.02in /  0.5mm 0 W/m2
06:34 53.6 °F /  12 °C 52.5 °F /  11.4 °C 29.9in /  1013.5hPa Calm   2mph /  3.2km/h 96% 0.02in /  0.5mm 0 W/m2
06:39 53.4 °F /  11.9 °C 52.3 °F /  11.3 °C 29.9in /  1013.5hPa Calm     96% 0.03in /  0.8mm 0 W/m2
06:44 53.4 °F /  11.9 °C 52.3 °F /  11.3 °C 29.9in /  1013.5hPa Calm   2mph /  3.2km/h 96% 0.03in /  0.8mm 0 W/m2
06:49 53.2 °F /  11.8 °C 52.2 °F /  11.2 °C 29.9in /  1013.5hPa Calm     96% 0.03in /  0.8mm 0 W/m2
06:54 53.2 °F /  11.8 °C 52.2 °F /  11.2 °C 29.9in /  1013.5hPa Calm     96% 0.02in /  0.5mm 0 W/m2
06:59 53.2 °F /  11.8 °C 52.2 °F /  11.2 °C 29.9in /  1013.5hPa Calm     96% 0.02in /  0.5mm 0 W/m2
07:04 53.2 °F /  11.8 °C 52.2 °F /  11.2 °C 29.9in /  1013.2hPa Calm     96% 0.02in /  0.5mm 0 W/m2
07:09 53.2 °F /  11.8 °C 52.2 °F /  11.2 °C 29.9in /  1013.2hPa Calm     96% 0.02in /  0.5mm 0 W/m2
07:14 53.1 °F /  11.7 °C 52 °F /  11.1 °C 29.9in /  1013.2hPa Calm     96% 0.03in /  0.8mm 0 W/m2
07:20 53.1 °F /  11.7 °C 52 °F /  11.1 °C 29.9in /  1013.2hPa Calm     96% 0.03in /  0.8mm 0 W/m2
07:25 53.1 °F /  11.7 °C 52 °F /  11.1 °C 29.9in /  1013.2hPa Calm     96% 0.04in /  1.0mm 0 W/m2
07:30 53.1 °F /  11.7 °C 52.2 °F /  11.2 °C 29.9in /  1013.2hPa Calm     97% 0.04in /  1.0mm 0 W/m2
07:35 53.1 °F /  11.7 °C 52 °F /  11.1 °C 29.9in /  1012.9hPa Calm   1mph /  1.6km/h 96% 0.03in /  0.8mm 0 W/m2
07:40 53.1 °F /  11.7 °C 52 °F /  11.1 °C 29.9in /  1012.9hPa East 0.9mph /  1.4km/h 2mph /  3.2km/h 96% 0.04in /  1.0mm 0 W/m2
07:45 53.1 °F /  11.7 °C 52 °F /  11.1 °C 29.9in /  1012.9hPa Calm     96% 0.04in /  1.0mm 0 W/m2
07:50 53.1 °F /  11.7 °C 52.2 °F /  11.2 °C 29.9in /  1012.9hPa Calm     97% 0.04in /  1.0mm 0 W/m2
07:55 53.1 °F /  11.7 °C 52.2 °F /  11.2 °C 29.9in /  1012.9hPa East 2mph /  3.2km/h 3mph /  4.8km/h 97% 0.05in /  1.3mm 0 W/m2
08:00 53.1 °F /  11.7 °C 52.2 °F /  11.2 °C 29.9in /  1012.9hPa NE 2mph /  3.2km/h 2mph /  3.2km/h 97% 0.05in /  1.3mm 0 W/m2
08:05 53.2 °F /  11.8 °C 52.3 °F /  11.3 °C 29.9in /  1012.9hPa NE 2mph /  3.2km/h 3mph /  4.8km/h 97% 0.04in /  1.0mm 0 W/m2
08:10 53.2 °F /  11.8 °C 52.3 °F /  11.3 °C 29.9in /  1012.9hPa Calm   2mph /  3.2km/h 97% 0.05in /  1.3mm 0 W/m2
08:15 53.4 °F /  11.9 °C 52.5 °F /  11.4 °C 29.9in /  1012.9hPa ENE 0.9mph /  1.4km/h 3mph /  4.8km/h 97% 0.03in /  0.8mm 0 W/m2
08:20 53.6 °F /  12 °C 52.7 °F /  11.5 °C 29.9in /  1012.9hPa WNW 2.9mph /  4.7km/h 3mph /  4.8km/h 97% 0.04in /  1.0mm 0 W/m2
08:25 54 °F /  12.2 °C 53.1 °F /  11.7 °C 29.9in /  1012.9hPa WNW 0.9mph /  1.4km/h 3mph /  4.8km/h 97% 0.03in /  0.8mm 0 W/m2
08:30 54 °F /  12.2 °C 53.1 °F /  11.7 °C 29.9in /  1012.9hPa Calm   2mph /  3.2km/h 97% 0.04in /  1.0mm 0 W/m2
08:35 54.1 °F /  12.3 °C 53.2 °F /  11.8 °C 29.9in /  1012.9hPa West 0.9mph /  1.4km/h 3mph /  4.8km/h 97% 0.05in /  1.3mm 0 W/m2
08:40 54.1 °F /  12.3 °C 53.2 °F /  11.8 °C 29.9in /  1012.9hPa Calm   2mph /  3.2km/h 97% 0.04in /  1.0mm 0 W/m2
08:48 54.3 °F /  12.4 °C 53.4 °F /  11.9 °C 29.9in /  1012.5hPa NE 0.9mph /  1.4km/h 3mph /  4.8km/h 97% 0.05in /  1.3mm 0 W/m2
08:53 54.3 °F /  12.4 °C 53.4 °F /  11.9 °C 29.9in /  1012.9hPa NNW 5mph /  8km/h 5mph /  8km/h 97% 0.04in /  1.0mm 0 W/m2
09:14 54.3 °F /  12.4 °C 53.2 °F /  11.8 °C 29.9in /  1012.2hPa NNW 2mph /  3.2km/h 4mph /  6.4km/h 96% 0.04in /  1.0mm 9 W/m2
09:19 54.3 °F /  12.4 °C 53.2 °F /  11.8 °C 29.9in /  1012.2hPa NNE 2.9mph /  4.7km/h 5mph /  8km/h 96% 0.03in /  0.8mm 11 W/m2
10:15 54.7 °F /  12.6 °C 53.2 °F /  11.8 °C 29.9in /  1012.5hPa Calm   4mph /  6.4km/h 95% 0in /  0.0mm 32 W/m2
10:20 54.7 °F /  12.6 °C 53.2 °F /  11.8 °C 29.9in /  1012.5hPa Calm   1mph /  1.6km/h 95% 0in /  0.0mm 30 W/m2
10:44 54.7 °F /  12.6 °C 53.2 °F /  11.8 °C 29.9in /  1012.5hPa NW 2.9mph /  4.7km/h 4mph /  6.4km/h 95% 0in /  0.0mm 44 W/m2
10:49 54.9 °F /  12.7 °C 53.4 °F /  11.9 °C 29.9in /  1012.5hPa Calm     95% 0in /  0.0mm 42 W/m2
10:54 54.9 °F /  12.7 °C 53.4 °F /  11.9 °C 29.9in /  1012.5hPa North 2.9mph /  4.7km/h 4mph /  6.4km/h 95% 0in /  0.0mm 44 W/m2
10:59 54.9 °F /  12.7 °C 53.4 °F /  11.9 °C 29.9in /  1012.2hPa NE 2mph /  3.2km/h 2mph /  3.2km/h 95% 0in /  0.0mm 44 W/m2
11:04 54.9 °F /  12.7 °C 53.4 °F /  11.9 °C 29.9in /  1012.2hPa Calm   1mph /  1.6km/h 95% 0in /  0.0mm 37 W/m2
11:09 54.9 °F /  12.7 °C 53.4 °F /  11.9 °C 29.9in /  1011.9hPa East 0.9mph /  1.4km/h 2mph /  3.2km/h 95% 0in /  0.0mm 35 W/m2
11:14 54.9 °F /  12.7 °C 53.4 °F /  11.9 °C 29.9in /  1011.9hPa ENE 2mph /  3.2km/h 3mph /  4.8km/h 95% 0in /  0.0mm 47 W/m2
11:19 54.9 °F /  12.7 °C 53.4 °F /  11.9 °C 29.9in /  1011.9hPa Calm   2mph /  3.2km/h 95% 0in /  0.0mm 44 W/m2
11:24 54.9 °F /  12.7 °C 53.4 °F /  11.9 °C 29.9in /  1011.9hPa North 2mph /  3.2km/h 2mph /  3.2km/h 95% 0in /  0.0mm 49 W/m2
11:29 54.9 °F /  12.7 °C 53.4 °F /  11.9 °C 29.9in /  1011.9hPa NNW 2mph /  3.2km/h 3mph /  4.8km/h 95% 0in /  0.0mm 58 W/m2
11:34 54.9 °F /  12.7 °C 53.4 °F /  11.9 °C 29.9in /  1011.5hPa NE 0.9mph /  1.4km/h 2mph /  3.2km/h 95% 0in /  0.0mm 40 W/m2
11:39 54.9 °F /  12.7 °C 53.2 °F /  11.8 °C 29.9in /  1011.5hPa NE 0.9mph /  1.4km/h 1mph /  1.6km/h 94% 0in /  0.0mm 30 W/m2
11:44 54.9 °F /  12.7 °C 53.2 °F /  11.8 °C 29.9in /  1011.5hPa ESE 2.9mph /  4.7km/h 3mph /  4.8km/h 94% 0in /  0.0mm 42 W/m2
12:05 54.9 °F /  12.7 °C 53.2 °F /  11.8 °C 29.9in /  1011.2hPa NW 4mph /  6.4km/h 4mph /  6.4km/h 94% 0.02in /  0.5mm 32 W/m2
12:10 54.9 °F /  12.7 °C 53.2 °F /  11.8 °C 29.9in /  1011.2hPa NW 2mph /  3.2km/h 3mph /  4.8km/h 94% 0.02in /  0.5mm 26 W/m2
12:15 54.7 °F /  12.6 °C 53.1 °F /  11.7 °C 29.9in /  1010.8hPa North 0.9mph /  1.4km/h 4mph /  6.4km/h 94% 0.03in /  0.8mm 40 W/m2
12:20 54.7 °F /  12.6 °C 53.1 °F /  11.7 °C 29.9in /  1010.8hPa Calm   3mph /  4.8km/h 94% 0.04in /  1.0mm 33 W/m2
12:25 54.7 °F /  12.6 °C 53.1 °F /  11.7 °C 29.9in /  1010.8hPa WNW 2mph /  3.2km/h 4mph /  6.4km/h 94% 0.04in /  1.0mm 35 W/m2
12:30 54.5 °F /  12.5 °C 52.9 °F /  11.6 °C 29.9in /  1010.8hPa North 0.9mph /  1.4km/h 2mph /  3.2km/h 94% 0.05in /  1.3mm 47 W/m2
12:35 54.3 °F /  12.4 °C 52.7 °F /  11.5 °C 29.9in /  1010.8hPa Calm   3mph /  4.8km/h 94% 0.05in /  1.3mm 32 W/m2
12:40 54.3 °F /  12.4 °C 52.7 °F /  11.5 °C 29.8in /  1010.5hPa NW 2.9mph /  4.7km/h 6mph /  9.7km/h 94% 0.05in /  1.3mm 39 W/m2
12:45 54.3 °F /  12.4 °C 52.7 °F /  11.5 °C 29.8in /  1010.5hPa NNW 2mph /  3.2km/h 5mph /  8km/h 94% 0.05in /  1.3mm 37 W/m2
12:50 54.3 °F /  12.4 °C 52.7 °F /  11.5 °C 29.8in /  1010.2hPa NW 4mph /  6.4km/h 6mph /  9.7km/h 94% 0.05in /  1.3mm 49 W/m2
12:55 54.1 °F /  12.3 °C 52.5 °F /  11.4 °C 29.8in /  1010.5hPa NNE 0.9mph /  1.4km/h 3mph /  4.8km/h 94% 0.05in /  1.3mm 40 W/m2
13:00 54.1 °F /  12.3 °C 52.5 °F /  11.4 °C 29.8in /  1010.2hPa Calm   5mph /  8km/h 94% 0.06in /  1.5mm 39 W/m2
13:05 54.1 °F /  12.3 °C 52.5 °F /  11.4 °C 29.8in /  1010.2hPa NW 2mph /  3.2km/h 3mph /  4.8km/h 94% 0.05in /  1.3mm 42 W/m2
13:10 54.1 °F /  12.3 °C 52.5 °F /  11.4 °C 29.8in /  1010.2hPa NNE 2mph /  3.2km/h 4mph /  6.4km/h 94% 0.04in /  1.0mm 56 W/m2
13:15 54.1 °F /  12.3 °C 52.5 °F /  11.4 °C 29.8in /  1010.2hPa NE 2mph /  3.2km/h 4mph /  6.4km/h 94% 0.03in /  0.8mm 60 W/m2
13:20 54.1 °F /  12.3 °C 52.5 °F /  11.4 °C 29.8in /  1010.2hPa NE 0.9mph /  1.4km/h 2mph /  3.2km/h 94% 0.02in /  0.5mm 60 W/m2
13:25 54.3 °F /  12.4 °C 52.7 °F /  11.5 °C 29.8in /  1009.8hPa NNE 2mph /  3.2km/h 3mph /  4.8km/h 94% 0.02in /  0.5mm 62 W/m2
13:30 54.3 °F /  12.4 °C 52.7 °F /  11.5 °C 29.8in /  1009.8hPa NE 4mph /  6.4km/h 8mph /  12.9km/h 94% 0.02in /  0.5mm 65 W/m2
13:35 54.3 °F /  12.4 °C 52.7 °F /  11.5 °C 29.8in /  1009.8hPa NE 2.9mph /  4.7km/h 3mph /  4.8km/h 94% 0.02in /  0.5mm 47 W/m2
13:40 54.3 °F /  12.4 °C 52.7 °F /  11.5 °C 29.8in /  1009.8hPa West 6.9mph /  11.1km/h 8mph /  12.9km/h 94% 0.01in /  0.2mm 32 W/m2
13:45 54.3 °F /  12.4 °C 52.7 °F /  11.5 °C 29.8in /  1010.2hPa East 0.9mph /  1.4km/h 4mph /  6.4km/h 94% 0.01in /  0.2mm 14 W/m2
13:50 54.1 °F /  12.3 °C 52.5 °F /  11.4 °C 29.8in /  1009.8hPa Calm   9mph /  14.5km/h 94% 0.01in /  0.2mm 19 W/m2
13:55 54.1 °F /  12.3 °C 52.5 °F /  11.4 °C 29.8in /  1009.8hPa NNE 4.9mph /  7.9km/h 12mph /  19.3km/h 94% 0.01in /  0.2mm 26 W/m2
14:00 54.1 °F /  12.3 °C 52.5 °F /  11.4 °C 29.8in /  1010.2hPa NW 2.9mph /  4.7km/h 7mph /  11.3km/h 94% 0.01in /  0.2mm 32 W/m2
14:06 54.1 °F /  12.3 °C 52.5 °F /  11.4 °C 29.8in /  1010.2hPa NNW 4mph /  6.4km/h 4mph /  6.4km/h 94% 0.01in /  0.2mm 18 W/m2
14:11 54.1 °F /  12.3 °C 52.5 °F /  11.4 °C 29.8in /  1010.2hPa North 4.9mph /  7.9km/h 7mph /  11.3km/h 94% 0.02in /  0.5mm 14 W/m2
14:16 54 °F /  12.2 °C 52.3 °F /  11.3 °C 29.8in /  1010.2hPa NW 2mph /  3.2km/h 5mph /  8km/h 94% 0.02in /  0.5mm 16 W/m2
14:21 54 °F /  12.2 °C 52.3 °F /  11.3 °C 29.8in /  1010.2hPa WNW 2mph /  3.2km/h 4mph /  6.4km/h 94% 0.02in /  0.5mm 35 W/m2
14:26 54 °F /  12.2 °C 52.3 °F /  11.3 °C 29.8in /  1010.2hPa NNE 0.9mph /  1.4km/h 4mph /  6.4km/h 94% 0.03in /  0.8mm 39 W/m2
14:31 54 °F /  12.2 °C 52.3 °F /  11.3 °C 29.8in /  1009.8hPa West 0.9mph /  1.4km/h 3mph /  4.8km/h 94% 0.03in /  0.8mm 23 W/m2
14:36 53.8 °F /  12.1 °C 52.2 °F /  11.2 °C 29.8in /  1009.8hPa ENE 2mph /  3.2km/h 3mph /  4.8km/h 94% 0.05in /  1.3mm 30 W/m2
14:41 53.8 °F /  12.1 °C 52.2 °F /  11.2 °C 29.8in /  1009.8hPa WNW 2mph /  3.2km/h 9mph /  14.5km/h 94% 0.06in /  1.5mm 30 W/m2
14:46 53.8 °F /  12.1 °C 52.2 °F /  11.2 °C 29.8in /  1010.2hPa NNW 2mph /  3.2km/h 5mph /  8km/h 94% 0.06in /  1.5mm 16 W/m2
14:51 54 °F /  12.2 °C 52.3 °F /  11.3 °C 29.8in /  1010.2hPa NW 2mph /  3.2km/h 9mph /  14.5km/h 94% 0.06in /  1.5mm 12 W/m2
14:56 53.8 °F /  12.1 °C 52.2 °F /  11.2 °C 29.8in /  1010.2hPa NNW 2mph /  3.2km/h 4mph /  6.4km/h 94% 0.07in /  1.8mm 11 W/m2
15:01 53.8 °F /  12.1 °C 52.2 °F /  11.2 °C 29.8in /  1009.8hPa NNW 2mph /  3.2km/h 3mph /  4.8km/h 94% 0.07in /  1.8mm 9 W/m2
15:06 53.8 °F /  12.1 °C 52.2 °F /  11.2 °C 29.8in /  1009.8hPa NNW 4mph /  6.4km/h 9mph /  14.5km/h 94% 0.08in /  2.0mm 9 W/m2
15:11 53.6 °F /  12 °C 52 °F /  11.1 °C 29.8in /  1010.2hPa WSW 0.9mph /  1.4km/h 12mph /  19.3km/h 94% 0.08in /  2.0mm 9 W/m2
15:16 53.4 °F /  11.9 °C 51.8 °F /  11 °C 29.8in /  1010.2hPa NNW 2mph /  3.2km/h 4mph /  6.4km/h 94% 0.09in /  2.3mm 7 W/m2
15:21 53.4 °F /  11.9 °C 52 °F /  11.1 °C 29.8in /  1010.2hPa NW 2.9mph /  4.7km/h 6mph /  9.7km/h 95% 0.1in /  2.5mm 5 W/m2
15:26 53.4 °F /  11.9 °C 52 °F /  11.1 °C 29.8in /  1010.2hPa SW 2.9mph /  4.7km/h 11mph /  17.7km/h 95% 0.11in /  2.8mm 0 W/m2
15:31 53.4 °F /  11.9 °C 52 °F /  11.1 °C 29.8in /  1010.2hPa WNW 4mph /  6.4km/h 5mph /  8km/h 95% 0.13in /  3.3mm 0 W/m2
15:36 53.4 °F /  11.9 °C 52 °F /  11.1 °C 29.8in /  1010.2hPa NW 2mph /  3.2km/h 11mph /  17.7km/h 95% 0.12in /  3.0mm 0 W/m2
15:41 53.6 °F /  12 °C 52.2 °F /  11.2 °C 29.8in /  1010.2hPa West 6.9mph /  11.1km/h 11mph /  17.7km/h 95% 0.13in /  3.3mm 0 W/m2
15:46 53.8 °F /  12.1 °C 52.2 °F /  11.2 °C 29.8in /  1010.2hPa NNW 0.9mph /  1.4km/h 8mph /  12.9km/h 94% 0.14in /  3.6mm 0 W/m2
15:51 53.6 °F /  12 °C 52 °F /  11.1 °C 29.8in /  1010.2hPa NW 4.9mph /  7.9km/h 5mph /  8km/h 94% 0.16in /  4.1mm 5 W/m2
15:56 53.6 °F /  12 °C 52.2 °F /  11.2 °C 29.8in /  1010.2hPa Calm   1mph /  1.6km/h 95% 0.17in /  4.3mm 0 W/m2
16:01 53.6 °F /  12 °C 52.2 °F /  11.2 °C 29.8in /  1010.2hPa WSW 0.9mph /  1.4km/h 3mph /  4.8km/h 95% 0.17in /  4.3mm 0 W/m2
16:06 53.6 °F /  12 °C 52.2 °F /  11.2 °C 29.8in /  1010.2hPa WNW 2.9mph /  4.7km/h 5mph /  8km/h 95% 0.17in /  4.3mm 0 W/m2
16:11 53.6 °F /  12 °C 52.2 °F /  11.2 °C 29.8in /  1010.2hPa ENE 2mph /  3.2km/h 4mph /  6.4km/h 95% 0.18in /  4.6mm 0 W/m2
16:16 53.8 °F /  12.1 °C 52.3 °F /  11.3 °C 29.8in /  1010.2hPa Calm   3mph /  4.8km/h 95% 0.19in /  4.8mm 0 W/m2
16:21 53.8 °F /  12.1 °C 52.2 °F /  11.2 °C 29.8in /  1010.2hPa North 2mph /  3.2km/h 12mph /  19.3km/h 94% 0.2in /  5.1mm 0 W/m2
16:26 53.8 °F /  12.1 °C 52.2 °F /  11.2 °C 29.8in /  1010.5hPa West 4mph /  6.4km/h 8mph /  12.9km/h 94% 0.19in /  4.8mm 0 W/m2
16:31 53.8 °F /  12.1 °C 52.2 °F /  11.2 °C 29.8in /  1010.5hPa West 4mph /  6.4km/h 12mph /  19.3km/h 94% 0.2in /  5.1mm 0 W/m2
16:36 53.8 °F /  12.1 °C 51.8 °F /  11 °C 29.8in /  1010.5hPa NE 2mph /  3.2km/h 3mph /  4.8km/h 93% 0.2in /  5.1mm 0 W/m2
16:41 53.6 °F /  12 °C 51.6 °F /  10.9 °C 29.8in /  1010.5hPa WNW 2mph /  3.2km/h 12mph /  19.3km/h 93% 0.2in /  5.1mm 0 W/m2
16:46 53.6 °F /  12 °C 51.6 °F /  10.9 °C 29.8in /  1010.2hPa WNW 0.9mph /  1.4km/h 6mph /  9.7km/h 93% 0.19in /  4.8mm 0 W/m2
17:07 53.2 °F /  11.8 °C 51.3 °F /  10.7 °C 29.8in /  1010.2hPa NW 2mph /  3.2km/h 6mph /  9.7km/h 93% 0.12in /  3.0mm 0 W/m2
17:12 53.2 °F /  11.8 °C 51.3 °F /  10.7 °C 29.8in /  1010.2hPa WNW 2.9mph /  4.7km/h 7mph /  11.3km/h 93% 0.11in /  2.8mm 0 W/m2
17:17 53.2 °F /  11.8 °C 51.3 °F /  10.7 °C 29.8in /  1010.2hPa North 2.9mph /  4.7km/h 4mph /  6.4km/h 93% 0.09in /  2.3mm 0 W/m2
17:22 53.2 °F /  11.8 °C 51.3 °F /  10.7 °C 29.8in /  1010.2hPa SW 0.9mph /  1.4km/h 3mph /  4.8km/h 93% 0.07in /  1.8mm 0 W/m2
17:27 53.2 °F /  11.8 °C 51.6 °F /  10.9 °C 29.8in /  1010.2hPa North 2mph /  3.2km/h 3mph /  4.8km/h 94% 0.06in /  1.5mm 0 W/m2
17:32 53.1 °F /  11.7 °C 51.4 °F /  10.8 °C 29.8in /  1010.2hPa NNW 0.9mph /  1.4km/h 5mph /  8km/h 94% 0.03in /  0.8mm 0 W/m2
17:37 53.2 °F /  11.8 °C 51.6 °F /  10.9 °C 29.8in /  1010.2hPa ESE 6.9mph /  11.1km/h 7mph /  11.3km/h 94% 0.02in /  0.5mm 0 W/m2
17:42 53.2 °F /  11.8 °C 51.6 °F /  10.9 °C 29.8in /  1009.8hPa NNW 2mph /  3.2km/h 5mph /  8km/h 94% 0.02in /  0.5mm 0 W/m2
17:47 53.2 °F /  11.8 °C 51.6 °F /  10.9 °C 29.8in /  1009.5hPa WSW 2.9mph /  4.7km/h 7mph /  11.3km/h 94% 0.02in /  0.5mm 0 W/m2
18:03 53.1 °F /  11.7 °C 51.4 °F /  10.8 °C 29.8in /  1009.8hPa NW 2mph /  3.2km/h 4mph /  6.4km/h 94% 0.02in /  0.5mm 0 W/m2
18:08 53.2 °F /  11.8 °C 51.6 °F /  10.9 °C 29.8in /  1010.2hPa NW 0.9mph /  1.4km/h 5mph /  8km/h 94% 0.02in /  0.5mm 0 W/m2
18:13 53.2 °F /  11.8 °C 51.6 °F /  10.9 °C 29.8in /  1009.8hPa NNW 2.9mph /  4.7km/h 4mph /  6.4km/h 94% 0.02in /  0.5mm 0 W/m2
18:18 53.1 °F /  11.7 °C 51.4 °F /  10.8 °C 29.8in /  1009.8hPa South 4mph /  6.4km/h 6mph /  9.7km/h 94% 0.02in /  0.5mm 0 W/m2
18:23 53.1 °F /  11.7 °C 51.4 °F /  10.8 °C 29.8in /  1009.8hPa WNW 2mph /  3.2km/h 7mph /  11.3km/h 94% 0.02in /  0.5mm 0 W/m2
18:28 53.2 °F /  11.8 °C 51.6 °F /  10.9 °C 29.8in /  1009.8hPa NE 4mph /  6.4km/h 4mph /  6.4km/h 94% 0.02in /  0.5mm 0 W/m2
18:33 53.1 °F /  11.7 °C 51.4 °F /  10.8 °C 29.8in /  1009.5hPa NNE 2.9mph /  4.7km/h 4mph /  6.4km/h 94% 0.02in /  0.5mm 0 W/m2
18:54 53.2 °F /  11.8 °C 51.6 °F /  10.9 °C 29.8in /  1009.5hPa SW 2mph /  3.2km/h 4mph /  6.4km/h 94% 0in /  0.0mm 0 W/m2
18:59 53.2 °F /  11.8 °C 51.6 °F /  10.9 °C 29.8in /  1009.5hPa NW 2.9mph /  4.7km/h 7mph /  11.3km/h 94% 0in /  0.0mm 0 W/m2
19:04 53.2 °F /  11.8 °C 51.6 °F /  10.9 °C 29.8in /  1009.5hPa Calm   8mph /  12.9km/h 94% 0in /  0.0mm 0 W/m2
19:09 53.2 °F /  11.8 °C 51.6 °F /  10.9 °C 29.8in /  1009.5hPa ESE 2mph /  3.2km/h 3mph /  4.8km/h 94% 0in /  0.0mm 0 W/m2
19:14 53.2 °F /  11.8 °C 51.3 °F /  10.7 °C 29.8in /  1009.5hPa WSW 4mph /  6.4km/h 6mph /  9.7km/h 93% 0in /  0.0mm 0 W/m2
19:19 53.2 °F /  11.8 °C 51.3 °F /  10.7 °C 29.8in /  1009.1hPa NW 2mph /  3.2km/h 10mph /  16.1km/h 93% 0in /  0.0mm 0 W/m2
19:24 53.2 °F /  11.8 °C 51.3 °F /  10.7 °C 29.8in /  1009.1hPa NW 2mph /  3.2km/h 4mph /  6.4km/h 93% 0in /  0.0mm 0 W/m2
19:29 53.2 °F /  11.8 °C 51.3 °F /  10.7 °C 29.8in /  1009.1hPa Calm   8mph /  12.9km/h 93% 0.01in /  0.2mm 0 W/m2
19:34 53.2 °F /  11.8 °C 51.3 °F /  10.7 °C 29.8in /  1009.1hPa West 4mph /  6.4km/h 6mph /  9.7km/h 93% 0.01in /  0.2mm 0 W/m2
19:39 53.2 °F /  11.8 °C 51.3 °F /  10.7 °C 29.8in /  1009.1hPa ESE 2mph /  3.2km/h 8mph /  12.9km/h 93% 0.01in /  0.2mm 0 W/m2
19:44 53.2 °F /  11.8 °C 51.3 °F /  10.7 °C 29.8in /  1009.1hPa WNW 0.9mph /  1.4km/h 4mph /  6.4km/h 93% 0.01in /  0.2mm 0 W/m2
19:49 53.2 °F /  11.8 °C 51.3 °F /  10.7 °C 29.8in /  1009.1hPa WNW 4mph /  6.4km/h 7mph /  11.3km/h 93% 0.01in /  0.2mm 0 W/m2
19:54 53.2 °F /  11.8 °C 51.3 °F /  10.7 °C 29.8in /  1009.1hPa NNE 4.9mph /  7.9km/h 10mph /  16.1km/h 93% 0.01in /  0.2mm 0 W/m2
19:59 53.6 °F /  12 °C 51.1 °F /  10.6 °C 29.8in /  1009.1hPa West 8.1mph /  13km/h 16mph /  25.7km/h 91% 0.01in /  0.2mm 0 W/m2
20:04 53.8 °F /  12.1 °C 51.3 °F /  10.7 °C 29.8in /  1009.1hPa WNW 0.9mph /  1.4km/h 7mph /  11.3km/h 91% 0.01in /  0.2mm 0 W/m2
20:09 53.8 °F /  12.1 °C 51.3 °F /  10.7 °C 29.8in /  1009.5hPa ENE 4.9mph /  7.9km/h 16mph /  25.7km/h 91% 0.01in /  0.2mm 0 W/m2
20:14 53.6 °F /  12 °C 51.1 °F /  10.6 °C 29.8in /  1009.1hPa Calm   4mph /  6.4km/h 91% 0.01in /  0.2mm 0 W/m2
20:19 53.4 °F /  11.9 °C 50.9 °F /  10.5 °C 29.8in /  1009.1hPa ENE 2mph /  3.2km/h 10mph /  16.1km/h 91% 0.01in /  0.2mm 0 W/m2
20:24 53.4 °F /  11.9 °C 50.9 °F /  10.5 °C 29.8in /  1009.1hPa NW 2mph /  3.2km/h 7mph /  11.3km/h 91% 0.01in /  0.2mm 0 W/m2
20:29 53.4 °F /  11.9 °C 50.9 °F /  10.5 °C 29.8in /  1009.1hPa NNE 0.9mph /  1.4km/h 9mph /  14.5km/h 91% 0in /  0.0mm 0 W/m2
20:34 53.4 °F /  11.9 °C 50.9 °F /  10.5 °C 29.8in /  1009.1hPa SW 0.9mph /  1.4km/h 4mph /  6.4km/h 91% 0in /  0.0mm 0 W/m2
20:40 53.4 °F /  11.9 °C 50.9 °F /  10.5 °C 29.8in /  1009.1hPa NNE 0.9mph /  1.4km/h 5mph /  8km/h 91% 0in /  0.0mm 0 W/m2
20:45 53.4 °F /  11.9 °C 50.9 °F /  10.5 °C 29.8in /  1009.1hPa West 6mph /  9.7km/h 11mph /  17.7km/h 91% 0in /  0.0mm 0 W/m2
20:50 53.4 °F /  11.9 °C 50.5 °F /  10.3 °C 29.8in /  1009.1hPa NNE 2mph /  3.2km/h 8mph /  12.9km/h 90% 0in /  0.0mm 0 W/m2
20:55 53.2 °F /  11.8 °C 50.4 °F /  10.2 °C 29.8in /  1009.1hPa West 8.1mph /  13km/h 8mph /  12.9km/h 90% 0in /  0.0mm 0 W/m2
21:00 53.4 °F /  11.9 °C 50.5 °F /  10.3 °C 29.8in /  1009.5hPa NW 2.9mph /  4.7km/h 9mph /  14.5km/h 90% 0in /  0.0mm 0 W/m2
21:05 53.4 °F /  11.9 °C 50.2 °F /  10.1 °C 29.8in /  1009.5hPa NW 12.1mph /  19.5km/h 12mph /  19.3km/h 89% 0in /  0.0mm 0 W/m2
21:10 53.6 °F /  12 °C 50.2 °F /  10.1 °C 29.8in /  1009.5hPa West 10.1mph /  16.3km/h 16mph /  25.7km/h 88% 0in /  0.0mm 0 W/m2
21:15 53.6 °F /  12 °C 50.2 °F /  10.1 °C 29.8in /  1009.1hPa NNE 2mph /  3.2km/h 10mph /  16.1km/h 88% 0in /  0.0mm 0 W/m2
21:20 53.4 °F /  11.9 °C 50 °F /  10 °C 29.8in /  1009.8hPa WNW 13mph /  20.9km/h 15mph /  24.1km/h 88% 0in /  0.0mm 0 W/m2
21:25 52.9 °F /  11.6 °C 48.7 °F /  9.3 °C 29.8in /  1009.8hPa NW 11mph /  17.7km/h 23mph /  37km/h 86% 0.04in /  1.0mm 0 W/m2
21:30 51.6 °F /  10.9 °C 47.5 °F /  8.6 °C 29.8in /  1009.8hPa West 8.1mph /  13km/h 13mph /  20.9km/h 86% 0.05in /  1.3mm 0 W/m2
21:35 51.3 °F /  10.7 °C 47.5 °F /  8.6 °C 29.8in /  1009.8hPa West 6mph /  9.7km/h 23mph /  37km/h 87% 0.05in /  1.3mm 0 W/m2
21:40 51.1 °F /  10.6 °C 47.1 °F /  8.4 °C 29.8in /  1009.5hPa WSW 4.9mph /  7.9km/h 12mph /  19.3km/h 86% 0.05in /  1.3mm 0 W/m2
21:45 50.9 °F /  10.5 °C 46.9 °F /  8.3 °C 29.8in /  1009.8hPa NW 4.9mph /  7.9km/h 12mph /  19.3km/h 86% 0.05in /  1.3mm 0 W/m2
21:50 50.7 °F /  10.4 °C 46.9 °F /  8.3 °C 29.8in /  1009.8hPa NW 4.9mph /  7.9km/h 10mph /  16.1km/h 87% 0.05in /  1.3mm 0 W/m2
21:55 50.5 °F /  10.3 °C 46.8 °F /  8.2 °C 29.8in /  1009.5hPa WNW 4mph /  6.4km/h 12mph /  19.3km/h 87% 0.05in /  1.3mm 0 W/m2
22:00 50.4 °F /  10.2 °C 46.6 °F /  8.1 °C 29.8in /  1009.8hPa WNW 4.9mph /  7.9km/h 10mph /  16.1km/h 87% 0.05in /  1.3mm 0 W/m2
22:05 50.4 °F /  10.2 °C 46.9 °F /  8.3 °C 29.8in /  1009.5hPa West 6mph /  9.7km/h 12mph /  19.3km/h 88% 0.05in /  1.3mm 0 W/m2
22:10 50.4 °F /  10.2 °C 46.6 °F /  8.1 °C 29.8in /  1009.8hPa North 2.9mph /  4.7km/h 8mph /  12.9km/h 87% 0.05in /  1.3mm 0 W/m2
22:15 50.2 °F /  10.1 °C 46.4 °F /  8 °C 29.8in /  1009.8hPa WSW 2.9mph /  4.7km/h 11mph /  17.7km/h 87% 0.05in /  1.3mm 0 W/m2
22:20 50 °F /  10 °C 46 °F /  7.8 °C 29.8in /  1009.8hPa WSW 4mph /  6.4km/h 11mph /  17.7km/h 86% 0.05in /  1.3mm 0 W/m2
22:25 49.8 °F /  9.9 °C 45.5 °F /  7.5 °C 29.8in /  1009.5hPa WNW 2mph /  3.2km/h 10mph /  16.1km/h 85% 0.01in /  0.2mm 0 W/m2
22:30 49.6 °F /  9.8 °C 45.3 °F /  7.4 °C 29.8in /  1009.5hPa West 2.9mph /  4.7km/h 11mph /  17.7km/h 85% 0in /  0.0mm 0 W/m2
22:35 49.5 °F /  9.7 °C 45.1 °F /  7.3 °C 29.8in /  1009.5hPa WNW 0.9mph /  1.4km/h 10mph /  16.1km/h 85% 0in /  0.0mm 0 W/m2
22:40 49.3 °F /  9.6 °C 45 °F /  7.2 °C 29.8in /  1009.5hPa NW 2.9mph /  4.7km/h 10mph /  16.1km/h 85% 0in /  0.0mm 0 W/m2
22:45 49.3 °F /  9.6 °C 45 °F /  7.2 °C 29.8in /  1009.5hPa WSW 4mph /  6.4km/h 6mph /  9.7km/h 85% 0in /  0.0mm 0 W/m2
22:50 49.3 °F /  9.6 °C 44.6 °F /  7 °C 29.8in /  1009.5hPa NW 0.9mph /  1.4km/h 10mph /  16.1km/h 84% 0in /  0.0mm 0 W/m2
22:55 49.3 °F /  9.6 °C 44.4 °F /  6.9 °C 29.8in /  1009.1hPa Calm   3mph /  4.8km/h 83% 0in /  0.0mm 0 W/m2
23:00 49.3 °F /  9.6 °C 44.1 °F /  6.7 °C 29.8in /  1009.5hPa North 2mph /  3.2km/h 10mph /  16.1km/h 82% 0in /  0.0mm 0 W/m2
23:05 49.3 °F /  9.6 °C 44.1 °F /  6.7 °C 29.8in /  1009.5hPa West 8.9mph /  14.3km/h 12mph /  19.3km/h 82% 0in /  0.0mm 0 W/m2
23:10 49.3 °F /  9.6 °C 44.1 °F /  6.7 °C 29.8in /  1009.8hPa West 6mph /  9.7km/h 7mph /  11.3km/h 82% 0in /  0.0mm 0 W/m2
23:15 49.3 °F /  9.6 °C 44.1 °F /  6.7 °C 29.8in /  1009.8hPa NW 12mph /  19.3km/h 12mph /  19.3km/h 82% 0in /  0.0mm 0 W/m2
23:20 49.1 °F /  9.5 °C 44.2 °F /  6.8 °C 29.8in /  1009.8hPa West 6mph /  9.7km/h 11mph /  17.7km/h 83% 0in /  0.0mm 0 W/m2
23:25 48.9 °F /  9.4 °C 44.1 °F /  6.7 °C 29.8in /  1010.2hPa WSW 4mph /  6.4km/h 7mph /  11.3km/h 83% 0in /  0.0mm 0 W/m2
23:43 48.9 °F /  9.4 °C 43.7 °F /  6.5 °C 29.8in /  1010.2hPa West 2.9mph /  4.7km/h 6mph /  9.7km/h 82% 0in /  0.0mm 0 W/m2
23:48 48.7 °F /  9.3 °C 43.9 °F /  6.6 °C 29.8in /  1010.2hPa WNW 2.9mph /  4.7km/h 5mph /  8km/h 83% 0in /  0.0mm 0 W/m2
23:53 48.6 °F /  9.2 °C 43.7 °F /  6.5 °C 29.8in /  1010.2hPa NW 10.1mph /  16.3km/h 12mph /  19.3km/h 83% 0in /  0.0mm 0 W/m2
23:58 48.6 °F /  9.2 °C 43.9 °F /  6.6 °C 29.8in /  1010.2hPa WNW 2.9mph /  4.7km/h 3mph /  4.8km/h 84% 0in /  0.0mm 0 W/m2
Juneau County Weather
Compliments of Weather Underground - 4 mb